createdAt,value
2022-10-05T00:01:53.254Z,91.10
2022-10-05T00:04:23.259Z,91.50
2022-10-05T00:07:12.461Z,92.00
2022-10-05T00:09:39.344Z,92.50
2022-10-05T00:12:17.704Z,93.10
2022-10-05T00:14:46.613Z,93.30
2022-10-05T00:17:20.394Z,93.30
2022-10-05T00:19:51.999Z,93.40
2022-10-05T00:22:24.759Z,93.40
2022-10-05T00:24:57.774Z,93.50
2022-10-05T00:27:33.551Z,93.50
2022-10-05T00:30:07.761Z,93.60
2022-10-05T00:32:34.476Z,93.70
2022-10-05T00:35:01.184Z,93.90
2022-10-05T00:37:27.971Z,93.90
2022-10-05T00:39:54.747Z,93.90
2022-10-05T00:43:01.259Z,93.70
2022-10-05T00:45:35.798Z,93.60
2022-10-05T00:48:21.139Z,93.50
2022-10-05T00:51:09.427Z,93.40
2022-10-05T00:53:45.244Z,93.40
2022-10-05T00:56:41.889Z,93.40
2022-10-05T00:59:18.837Z,93.20
2022-10-05T01:01:58.704Z,93.30
2022-10-05T01:05:02.003Z,93.00
2022-10-05T01:07:50.360Z,92.70
2022-10-05T01:10:36.047Z,92.50
2022-10-05T01:13:20.079Z,92.40
2022-10-05T01:15:54.399Z,92.40
2022-10-05T01:18:31.242Z,92.00
2022-10-05T01:21:13.995Z,92.20
2022-10-05T01:23:51.994Z,92.00
2022-10-05T01:26:33.892Z,91.70
2022-10-05T01:29:22.577Z,91.70
2022-10-05T01:32:07.655Z,91.50
2022-10-05T01:34:45.211Z,91.30
2022-10-05T01:37:35.810Z,91.10
2022-10-05T01:40:14.559Z,91.00
2022-10-05T01:42:56.277Z,91.20
2022-10-05T01:45:44.789Z,91.10
2022-10-05T01:48:40.144Z,91.30
2022-10-05T01:51:15.336Z,91.40
2022-10-05T01:54:00.938Z,91.80
2022-10-05T01:56:34.834Z,92.00
2022-10-05T01:59:12.174Z,92.10
2022-10-05T02:01:58.625Z,92.00
2022-10-05T02:05:08.925Z,91.70
2022-10-05T02:08:13.385Z,91.60
2022-10-05T02:10:49.671Z,91.60
2022-10-05T02:13:21.280Z,91.50
2022-10-05T02:16:05.161Z,91.50
2022-10-05T02:18:38.743Z,91.60
2022-10-05T02:21:06.004Z,91.50
2022-10-05T02:23:38.038Z,91.40
2022-10-05T02:26:05.898Z,91.50
2022-10-05T02:28:44.943Z,91.50
2022-10-05T02:31:35.021Z,91.30
2022-10-05T02:34:20.260Z,91.40
2022-10-05T02:37:12.336Z,91.40
2022-10-05T02:39:42.062Z,91.40
2022-10-05T02:42:49.229Z,91.00
2022-10-05T02:45:23.524Z,90.80
2022-10-05T02:47:55.768Z,90.60
2022-10-05T02:50:55.713Z,90.50
2022-10-05T02:53:28.624Z,90.40
2022-10-05T02:56:26.221Z,90.40
2022-10-05T02:59:23.622Z,90.40
2022-10-05T03:02:14.568Z,90.30
2022-10-05T03:04:49.875Z,90.10
2022-10-05T03:07:29.582Z,90.40
2022-10-05T03:10:08.679Z,90.30
2022-10-05T03:12:54.151Z,90.40
2022-10-05T03:15:41.028Z,90.50
2022-10-05T03:18:32.105Z,90.20
2022-10-05T03:21:16.839Z,90.30
2022-10-05T03:24:10.487Z,90.40
2022-10-05T03:26:50.782Z,90.30
2022-10-05T03:29:50.163Z,90.40
2022-10-05T03:32:32.119Z,90.20
2022-10-05T03:35:43.097Z,90.30
2022-10-05T03:38:48.682Z,90.10
2022-10-05T03:41:25.957Z,90.10
2022-10-05T03:44:00.264Z,90.00
2022-10-05T03:47:04.370Z,90.00
2022-10-05T03:50:02.875Z,90.10
2022-10-05T03:52:46.505Z,90.10
2022-10-05T03:55:22.504Z,90.10
2022-10-05T03:57:51.214Z,90.20
2022-10-05T04:00:23.112Z,90.40
2022-10-05T04:03:00.656Z,90.40
2022-10-05T04:05:39.468Z,90.20
2022-10-05T04:08:35.614Z,90.20
2022-10-05T04:11:09.114Z,90.20
2022-10-05T04:13:43.160Z,90.20
2022-10-05T04:16:29.519Z,90.30
2022-10-05T04:19:15.914Z,90.10
2022-10-05T04:22:18.183Z,90.30
2022-10-05T04:25:06.796Z,90.40
2022-10-05T04:28:06.437Z,90.30
2022-10-05T04:30:37.252Z,90.30
2022-10-05T04:33:10.272Z,90.50
2022-10-05T04:36:14.711Z,90.30
2022-10-05T04:39:08.430Z,90.30
2022-10-05T04:42:16.463Z,90.00
2022-10-05T04:44:59.341Z,90.00
2022-10-05T04:47:47.175Z,89.70
2022-10-05T04:50:43.229Z,89.90
2022-10-05T04:53:19.371Z,89.30
2022-10-05T04:55:59.062Z,89.00
2022-10-05T04:58:50.358Z,88.40
2022-10-05T05:01:26.202Z,88.70
2022-10-05T05:04:08.061Z,88.40
2022-10-05T05:06:48.462Z,88.70
2022-10-05T05:09:24.274Z,88.30
2022-10-05T05:12:13.393Z,87.50
2022-10-05T05:15:11.916Z,87.90
2022-10-05T05:18:18.828Z,87.20
2022-10-05T05:20:55.104Z,87.60
2022-10-05T05:23:59.447Z,87.80
2022-10-05T05:26:52.206Z,87.80
2022-10-05T05:29:18.912Z,87.70
2022-10-05T05:32:01.056Z,88.00
2022-10-05T05:34:27.710Z,87.90
2022-10-05T05:37:25.716Z,87.80
2022-10-05T05:40:15.120Z,88.20
2022-10-05T05:43:23.410Z,87.90
2022-10-05T05:46:11.906Z,88.00
2022-10-05T05:48:41.265Z,88.40
2022-10-05T05:51:14.140Z,87.90
2022-10-05T05:53:48.092Z,87.40
2022-10-05T05:56:27.954Z,86.90
2022-10-05T05:59:04.697Z,86.50
2022-10-05T06:01:45.088Z,86.80
2022-10-05T06:04:22.010Z,86.30
2022-10-05T06:06:51.930Z,86.30
2022-10-05T06:09:30.824Z,86.20
2022-10-05T06:12:05.894Z,85.80
2022-10-05T06:14:40.077Z,85.60
2022-10-05T06:17:15.689Z,85.30
2022-10-05T06:19:44.431Z,85.40
2022-10-05T06:22:32.655Z,84.60
2022-10-05T06:25:08.616Z,84.00
2022-10-05T06:27:37.427Z,83.20
2022-10-05T06:30:15.535Z,82.70
2022-10-05T06:33:14.439Z,82.10
2022-10-05T06:35:56.207Z,81.40
2022-10-05T06:38:34.883Z,80.40
2022-10-05T06:41:25.148Z,78.80
2022-10-05T06:44:07.344Z,78.40
2022-10-05T06:46:52.905Z,77.80
2022-10-05T06:49:31.439Z,73.70
2022-10-05T06:52:11.198Z,71.60
2022-10-05T06:55:00.057Z,68.30
2022-10-05T06:57:41.700Z,66.50
2022-10-05T07:00:14.488Z,63.10
2022-10-05T07:02:56.028Z,59.40
2022-10-05T07:05:50.605Z,56.50
2022-10-05T07:08:55.170Z,54.30
2022-10-05T07:11:39.701Z,53.50
2022-10-05T07:14:15.225Z,52.10
2022-10-05T07:17:00.080Z,50.10
2022-10-05T07:20:07.704Z,49.70
2022-10-05T07:22:52.887Z,49.10
2022-10-05T07:25:29.318Z,46.90
2022-10-05T07:28:30.651Z,46.70
2022-10-05T07:31:13.648Z,45.70
2022-10-05T07:33:45.031Z,45.30
2022-10-05T07:37:11.612Z,42.00
2022-10-05T07:40:06.812Z,40.70
2022-10-05T07:42:59.927Z,41.40
2022-10-05T07:45:31.986Z,39.80
2022-10-05T07:48:20.678Z,40.00
2022-10-05T07:51:00.301Z,39.10
2022-10-05T07:53:40.507Z,39.80
2022-10-05T07:56:25.713Z,39.70
2022-10-05T07:59:01.719Z,38.90
2022-10-05T08:01:38.064Z,38.50
2022-10-05T08:04:27.817Z,38.00
2022-10-05T08:06:58.403Z,38.10
2022-10-05T08:10:00.806Z,37.20
2022-10-05T08:12:59.128Z,36.80
2022-10-05T08:15:40.961Z,36.30
2022-10-05T08:18:16.673Z,36.60
2022-10-05T08:20:47.935Z,35.50
2022-10-05T08:23:41.332Z,35.50
2022-10-05T08:26:39.161Z,35.30
2022-10-05T08:29:16.713Z,35.10
2022-10-05T08:31:58.267Z,35.90
2022-10-05T08:34:45.696Z,36.60
2022-10-05T08:37:21.338Z,36.60
2022-10-05T08:40:30.984Z,36.40
2022-10-05T08:43:16.579Z,37.70
2022-10-05T08:46:03.033Z,37.90
2022-10-05T08:48:56.270Z,37.60
2022-10-05T08:51:56.580Z,38.00
2022-10-05T08:54:45.870Z,38.00
2022-10-05T08:57:30.702Z,38.30
2022-10-05T09:00:15.665Z,38.80
2022-10-05T09:03:06.808Z,38.80
2022-10-05T09:05:58.493Z,39.60
2022-10-05T09:08:51.293Z,40.10
2022-10-05T09:11:27.787Z,41.30
2022-10-05T09:14:06.739Z,41.70
2022-10-05T09:17:02.175Z,41.00
2022-10-05T09:19:53.624Z,40.60
2022-10-05T09:22:23.910Z,41.60
2022-10-05T09:24:56.986Z,41.80
2022-10-05T09:27:35.288Z,41.70
2022-10-05T09:30:11.405Z,41.40
2022-10-05T09:32:52.593Z,41.10
2022-10-05T09:35:46.865Z,41.20
2022-10-05T09:38:34.967Z,41.10
2022-10-05T09:41:29.286Z,40.20
2022-10-05T09:44:11.032Z,39.60
2022-10-05T09:47:02.523Z,39.30
2022-10-05T09:49:41.131Z,39.10
2022-10-05T09:52:44.841Z,38.40
2022-10-05T09:55:42.015Z,38.40
2022-10-05T09:58:28.489Z,38.10
2022-10-05T10:01:09.212Z,38.10
2022-10-05T10:04:01.078Z,37.50
2022-10-05T10:06:37.988Z,37.10
2022-10-05T10:09:07.775Z,36.90
2022-10-05T10:11:44.224Z,36.70
2022-10-05T10:14:30.196Z,35.70
2022-10-05T10:17:14.608Z,35.80
2022-10-05T10:19:53.028Z,35.60
2022-10-05T10:22:53.563Z,35.40
2022-10-05T10:25:53.551Z,34.90
2022-10-05T10:28:48.158Z,34.90
2022-10-05T10:31:53.481Z,35.10
2022-10-05T10:34:29.458Z,35.00
2022-10-05T10:37:16.327Z,34.80
2022-10-05T10:40:10.875Z,34.80
2022-10-05T10:42:52.594Z,35.70
2022-10-05T10:45:28.738Z,35.90
2022-10-05T10:48:05.150Z,36.10
2022-10-05T10:51:10.567Z,36.30
2022-10-05T10:53:56.127Z,35.90
2022-10-05T10:56:42.084Z,37.10
2022-10-05T10:59:42.249Z,37.00
2022-10-05T11:02:21.314Z,37.60
2022-10-05T11:05:39.013Z,37.70
2022-10-05T11:08:16.600Z,37.60
2022-10-05T11:11:19.727Z,38.00
2022-10-05T11:14:11.104Z,38.10
2022-10-05T11:16:59.893Z,38.00
2022-10-05T11:19:35.181Z,37.20
2022-10-05T11:22:22.460Z,37.40
2022-10-05T11:25:17.116Z,37.00
2022-10-05T11:28:04.298Z,36.30
2022-10-05T11:30:51.142Z,36.90
2022-10-05T11:33:48.250Z,37.10
2022-10-05T11:36:53.693Z,37.10
2022-10-05T11:39:33.420Z,37.80
2022-10-05T11:42:06.337Z,37.70
2022-10-05T11:44:51.812Z,38.20
2022-10-05T11:47:48.270Z,38.00
2022-10-05T11:50:30.981Z,37.70
2022-10-05T11:53:11.251Z,38.60
2022-10-05T11:55:44.178Z,37.50
2022-10-05T11:58:15.997Z,37.80
2022-10-05T12:00:45.062Z,38.00
2022-10-05T12:03:47.098Z,36.70
2022-10-05T12:06:25.602Z,36.40
2022-10-05T12:09:13.378Z,36.60
2022-10-05T12:12:07.854Z,37.00
2022-10-05T12:14:44.767Z,35.60
2022-10-05T12:17:37.006Z,35.70
2022-10-05T12:20:33.934Z,36.00
2022-10-05T12:23:12.861Z,35.20
2022-10-05T12:25:48.263Z,35.90
2022-10-05T12:28:21.251Z,34.40
2022-10-05T12:30:51.092Z,34.90
2022-10-05T12:33:34.359Z,35.00
2022-10-05T12:36:07.825Z,34.90
2022-10-05T12:38:41.731Z,34.90
2022-10-05T12:41:19.976Z,35.10
2022-10-05T12:44:12.391Z,35.50
2022-10-05T12:46:44.995Z,34.90
2022-10-05T12:49:40.602Z,35.30
2022-10-05T12:52:27.210Z,34.40
2022-10-05T12:54:54.196Z,35.30
2022-10-05T12:57:30.149Z,35.30
2022-10-05T13:00:02.661Z,35.50
2022-10-05T13:02:50.964Z,35.00
2022-10-05T13:05:27.241Z,35.80
2022-10-05T13:08:06.826Z,35.30
2022-10-05T13:10:50.560Z,35.70
2022-10-05T13:13:49.480Z,35.30
2022-10-05T13:16:16.614Z,35.50
2022-10-05T13:18:58.870Z,34.50
2022-10-05T13:21:52.081Z,35.60
2022-10-05T13:24:34.495Z,35.40
2022-10-05T13:27:13.755Z,35.20
2022-10-05T13:29:58.291Z,35.00
2022-10-05T13:32:31.070Z,35.20
2022-10-05T13:35:22.164Z,35.00
2022-10-05T13:38:10.223Z,35.00
2022-10-05T13:40:49.561Z,35.00
2022-10-05T13:43:28.253Z,35.10
2022-10-05T13:46:02.185Z,34.50
2022-10-05T13:49:07.489Z,34.60
2022-10-05T13:51:42.581Z,34.40
2022-10-05T13:54:16.340Z,34.50
2022-10-05T13:56:48.705Z,35.00
2022-10-05T13:59:32.913Z,34.90
2022-10-05T14:02:05.883Z,34.90
2022-10-05T14:04:51.923Z,34.40
2022-10-05T14:07:47.915Z,34.30
2022-10-05T14:10:31.368Z,34.20
2022-10-05T14:12:58.446Z,34.40
2022-10-05T14:15:39.784Z,34.40
2022-10-05T14:18:24.607Z,35.30
2022-10-05T14:21:14.254Z,35.50
2022-10-05T14:23:41.504Z,35.60
2022-10-05T14:26:20.870Z,35.50
2022-10-05T14:29:00.341Z,35.20
2022-10-05T14:31:34.000Z,35.40
2022-10-05T14:34:30.155Z,35.90
2022-10-05T14:37:21.417Z,35.80
2022-10-05T14:39:50.132Z,35.80
2022-10-05T14:42:19.582Z,35.90
2022-10-05T14:45:11.855Z,33.80
2022-10-05T14:47:52.345Z,33.50
2022-10-05T14:50:29.439Z,33.60
2022-10-05T14:53:11.104Z,33.60
2022-10-05T14:55:59.004Z,33.20
2022-10-05T14:59:09.912Z,33.20
2022-10-05T15:01:45.097Z,31.70
2022-10-05T15:04:21.105Z,30.60
2022-10-05T15:07:20.673Z,31.50
2022-10-05T15:10:01.954Z,31.00
2022-10-05T15:12:43.985Z,31.50
2022-10-05T15:15:39.722Z,31.90
2022-10-05T15:18:23.076Z,32.40
2022-10-05T15:21:13.474Z,32.90
2022-10-05T15:23:42.858Z,33.50
2022-10-05T15:26:21.607Z,34.50
2022-10-05T15:29:09.311Z,34.30
2022-10-05T15:31:51.607Z,34.70
2022-10-05T15:34:27.907Z,35.30
2022-10-05T15:37:16.202Z,34.60
2022-10-05T15:39:57.176Z,34.40
2022-10-05T15:42:35.714Z,33.30
2022-10-05T15:45:14.415Z,32.80
2022-10-05T15:47:51.058Z,32.00
2022-10-05T15:50:23.627Z,32.10
2022-10-05T15:53:27.418Z,32.20
2022-10-05T15:56:13.132Z,32.70
2022-10-05T15:58:52.952Z,33.20
2022-10-05T16:01:31.061Z,33.30
2022-10-05T16:04:20.531Z,34.00
2022-10-05T16:07:20.982Z,34.20
2022-10-05T16:09:47.741Z,34.00
2022-10-05T16:12:29.328Z,34.70
2022-10-05T16:15:01.968Z,34.70
2022-10-05T16:17:34.862Z,34.90
2022-10-05T16:20:15.127Z,35.60
2022-10-05T16:23:09.706Z,35.80
2022-10-05T16:25:58.778Z,36.70
2022-10-05T16:28:34.678Z,36.70
2022-10-05T16:31:10.397Z,37.00
2022-10-05T16:34:01.007Z,37.80
2022-10-05T16:36:48.007Z,37.80
2022-10-05T16:39:25.579Z,38.20
2022-10-05T16:42:02.046Z,38.60
2022-10-05T16:44:46.751Z,38.80
2022-10-05T16:47:42.450Z,39.20
2022-10-05T16:50:21.489Z,40.40
2022-10-05T16:52:58.923Z,41.10
2022-10-05T16:55:41.986Z,41.60
2022-10-05T16:58:21.734Z,42.30
2022-10-05T17:01:24.304Z,42.70
2022-10-05T17:04:29.543Z,43.90
2022-10-05T17:07:24.000Z,44.70
2022-10-05T17:10:04.809Z,45.10
2022-10-05T17:12:45.492Z,45.90
2022-10-05T17:15:49.767Z,46.90
2022-10-05T17:18:24.018Z,48.70
2022-10-05T17:21:05.093Z,49.60
2022-10-05T17:23:43.474Z,49.90
2022-10-05T17:26:33.830Z,51.20
2022-10-05T17:29:16.379Z,51.20
2022-10-05T17:32:18.513Z,51.40
2022-10-05T17:35:02.554Z,52.30
2022-10-05T17:37:39.609Z,53.10
2022-10-05T17:40:33.020Z,54.50
2022-10-05T17:43:24.414Z,55.70
2022-10-05T17:45:55.150Z,56.60
2022-10-05T17:48:49.899Z,57.50
2022-10-05T17:51:36.667Z,57.80
2022-10-05T17:54:43.524Z,58.20
2022-10-05T17:57:10.202Z,58.00
2022-10-05T17:59:48.508Z,58.50
2022-10-05T18:02:22.443Z,59.10
2022-10-05T18:05:00.506Z,59.50
2022-10-05T18:07:27.869Z,60.60
2022-10-05T18:09:59.574Z,62.10
2022-10-05T18:12:37.228Z,63.40
2022-10-05T18:15:06.942Z,64.10
2022-10-05T18:18:20.802Z,64.80
2022-10-05T18:21:30.493Z,65.40
2022-10-05T18:23:58.786Z,66.90
2022-10-05T18:26:46.721Z,68.40
2022-10-05T18:30:05.059Z,69.30
2022-10-05T18:33:00.411Z,69.60
2022-10-05T18:35:27.134Z,70.60
2022-10-05T18:38:18.577Z,71.10
2022-10-05T18:41:21.237Z,71.70
2022-10-05T18:44:26.230Z,71.80
2022-10-05T18:47:05.990Z,72.20
2022-10-05T18:50:10.482Z,73.10
2022-10-05T18:53:09.449Z,73.20
2022-10-05T18:55:45.050Z,73.50
2022-10-05T18:58:36.958Z,73.60
2022-10-05T19:01:42.556Z,74.10
2022-10-05T19:04:22.527Z,74.20
2022-10-05T19:07:09.765Z,74.60
2022-10-05T19:09:45.559Z,74.70
2022-10-05T19:12:18.211Z,76.20
2022-10-05T19:14:45.295Z,75.90
2022-10-05T19:17:49.746Z,75.80
2022-10-05T19:20:34.054Z,75.20
2022-10-05T19:23:22.084Z,75.10
2022-10-05T19:25:58.786Z,74.40
2022-10-05T19:28:50.157Z,73.90
2022-10-05T19:31:36.240Z,73.80
2022-10-05T19:34:13.389Z,73.60
2022-10-05T19:37:14.016Z,72.90
2022-10-05T19:40:03.484Z,72.40
2022-10-05T19:43:18.967Z,72.20
2022-10-05T19:46:00.611Z,72.70
2022-10-05T19:48:35.743Z,71.30
2022-10-05T19:51:11.604Z,70.90
2022-10-05T19:53:45.847Z,70.40
2022-10-05T19:56:28.692Z,69.70
2022-10-05T19:59:00.319Z,69.50
2022-10-05T20:01:35.456Z,69.30
2022-10-05T20:04:02.362Z,68.90
2022-10-05T20:06:31.046Z,68.70
2022-10-05T20:09:00.273Z,68.10
2022-10-05T20:11:31.496Z,68.40
2022-10-05T20:14:01.247Z,68.20
2022-10-05T20:16:51.573Z,68.20
2022-10-05T20:19:51.747Z,69.00
2022-10-05T20:22:27.845Z,69.70
2022-10-05T20:24:57.740Z,70.10
2022-10-05T20:27:57.364Z,70.00
2022-10-05T20:30:27.516Z,70.00
2022-10-05T20:33:09.259Z,69.00
2022-10-05T20:35:35.970Z,68.90
2022-10-05T20:38:02.736Z,68.70
2022-10-05T20:40:30.441Z,68.90
2022-10-05T20:42:58.245Z,68.50
2022-10-05T20:45:25.184Z,68.30
2022-10-05T20:47:52.336Z,68.10
2022-10-05T20:50:20.509Z,68.20
2022-10-05T20:52:47.270Z,67.50
2022-10-05T20:55:14.112Z,67.50
2022-10-05T20:57:45.419Z,67.50
2022-10-05T21:00:13.301Z,67.10
2022-10-05T21:02:40.077Z,66.80
2022-10-05T21:05:07.741Z,66.90
2022-10-05T21:07:35.009Z,66.90
2022-10-05T21:10:03.651Z,66.60
2022-10-05T21:12:30.529Z,66.10
2022-10-05T21:14:59.247Z,66.50
2022-10-05T21:17:25.993Z,66.40
2022-10-05T21:19:52.698Z,66.20
2022-10-05T21:22:19.425Z,66.20
2022-10-05T21:24:46.177Z,66.10
2022-10-05T21:27:12.968Z,66.80
2022-10-05T21:29:41.239Z,66.80
2022-10-05T21:32:11.617Z,66.60
2022-10-05T21:34:39.740Z,66.90
2022-10-05T21:37:07.079Z,66.70
2022-10-05T21:39:35.100Z,66.60
2022-10-05T21:42:02.050Z,66.70
2022-10-05T21:44:28.788Z,66.70
2022-10-05T21:46:56.582Z,66.30
2022-10-05T21:49:23.946Z,66.40
2022-10-05T21:51:50.896Z,66.60
2022-10-05T21:54:21.021Z,66.60
2022-10-05T21:56:50.845Z,67.10
2022-10-05T21:59:21.617Z,66.70
2022-10-05T22:01:48.408Z,67.10
2022-10-05T22:04:15.332Z,67.20
2022-10-05T22:06:42.116Z,67.60
2022-10-05T22:09:08.878Z,68.30
2022-10-05T22:11:35.673Z,68.80
2022-10-05T22:14:02.773Z,68.60
2022-10-05T22:16:33.028Z,68.60
2022-10-05T22:19:04.297Z,68.90
2022-10-05T22:21:32.857Z,69.30
2022-10-05T22:24:02.383Z,70.40
2022-10-05T22:26:29.674Z,71.10
2022-10-05T22:28:57.024Z,71.40
2022-10-05T22:31:23.950Z,71.80
2022-10-05T22:33:51.242Z,72.20
2022-10-05T22:36:18.634Z,71.90
2022-10-05T22:38:46.621Z,72.50
2022-10-05T22:41:15.071Z,72.60
2022-10-05T22:43:41.947Z,73.60
2022-10-05T22:46:10.665Z,74.00
2022-10-05T22:48:37.830Z,73.80
2022-10-05T22:51:05.129Z,74.40
2022-10-05T22:53:31.949Z,74.60
2022-10-05T22:56:13.477Z,74.70
2022-10-05T22:58:41.655Z,75.60
2022-10-05T23:01:11.679Z,75.50
2022-10-05T23:03:38.536Z,76.30
2022-10-05T23:06:15.194Z,76.70
2022-10-05T23:08:42.419Z,76.70
2022-10-05T23:11:12.159Z,76.70
2022-10-05T23:13:38.976Z,76.80
2022-10-05T23:16:07.757Z,76.30
2022-10-05T23:18:34.860Z,76.80
2022-10-05T23:21:01.699Z,77.30
2022-10-05T23:23:28.542Z,77.20
2022-10-05T23:26:02.114Z,76.90
2022-10-05T23:28:29.674Z,77.20
2022-10-05T23:31:01.558Z,77.20
2022-10-05T23:33:28.552Z,77.40
2022-10-05T23:36:00.144Z,77.50
2022-10-05T23:38:27.465Z,77.30
2022-10-05T23:40:54.609Z,77.10
2022-10-05T23:43:21.936Z,77.30
2022-10-05T23:45:48.999Z,77.50
2022-10-05T23:48:15.827Z,78.00
2022-10-05T23:50:46.272Z,77.70
2022-10-05T23:53:13.132Z,77.10
2022-10-05T23:55:39.868Z,76.90
2022-10-05T23:58:06.682Z,76.30
